createdAt,value
2019-02-19T00:01:37.212Z,221.33
2019-02-19T00:04:10.750Z,252.83
2019-02-19T00:06:41.307Z,229.00
2019-02-19T00:09:11.838Z,283.23
2019-02-19T00:11:42.364Z,303.50
2019-02-19T00:14:16.030Z,272.10
2019-02-19T00:16:46.628Z,288.73
2019-02-19T00:19:17.202Z,174.73
2019-02-19T00:21:47.855Z,196.20
2019-02-19T00:24:18.413Z,372.93
2019-02-19T00:26:48.996Z,265.50
2019-02-19T00:29:19.927Z,264.43
2019-02-19T00:31:50.465Z,240.87
2019-02-19T00:34:20.979Z,170.63
2019-02-19T00:36:51.579Z,161.70
2019-02-19T00:39:22.094Z,296.27
2019-02-19T00:41:52.674Z,258.67
2019-02-19T00:44:23.225Z,250.77
2019-02-19T00:46:54.181Z,324.53
2019-02-19T00:49:24.728Z,348.37
2019-02-19T00:51:55.327Z,344.07
2019-02-19T00:54:25.847Z,217.43
2019-02-19T00:56:56.387Z,197.37
2019-02-19T00:59:26.932Z,256.80
2019-02-19T01:01:57.500Z,268.93
2019-02-19T01:04:28.052Z,276.63
2019-02-19T01:06:58.963Z,245.60
2019-02-19T01:09:29.580Z,246.33
2019-02-19T01:12:00.090Z,189.33
2019-02-19T01:14:31.007Z,260.97
2019-02-19T01:17:02.492Z,204.17
2019-02-19T01:19:33.160Z,192.70
2019-02-19T01:22:03.830Z,252.40
2019-02-19T01:24:34.353Z,267.47
2019-02-19T01:27:04.962Z,217.80
2019-02-19T01:29:35.491Z,255.40
2019-02-19T01:32:06.323Z,226.43
2019-02-19T01:34:36.858Z,225.90
2019-02-19T01:37:07.406Z,273.23
2019-02-19T01:39:37.976Z,313.87
2019-02-19T01:42:08.507Z,306.50
2019-02-19T01:44:39.040Z,175.90
2019-02-19T01:47:09.609Z,184.57
2019-02-19T01:49:40.127Z,311.53
2019-02-19T01:52:10.703Z,175.47
2019-02-19T01:54:41.292Z,303.37
2019-02-19T01:57:11.863Z,148.27
2019-02-19T01:59:42.403Z,318.20
2019-02-19T02:02:12.988Z,344.60
2019-02-19T02:04:43.709Z,198.73
2019-02-19T02:07:15.269Z,393.13
2019-02-19T02:09:45.944Z,192.43
2019-02-19T02:12:17.047Z,308.47
2019-02-19T02:14:48.513Z,139.80
2019-02-19T02:17:19.263Z,152.90
2019-02-19T02:19:49.875Z,202.73
2019-02-19T02:22:24.420Z,190.70
2019-02-19T02:24:55.347Z,220.67
2019-02-19T02:27:25.928Z,138.90
2019-02-19T02:29:56.530Z,185.77
2019-02-19T02:32:27.147Z,357.17
2019-02-19T02:34:57.680Z,164.23
2019-02-19T02:37:28.334Z,301.40
2019-02-19T02:39:58.883Z,225.47
2019-02-19T02:42:29.941Z,275.70
2019-02-19T02:45:00.522Z,292.37
2019-02-19T02:47:31.055Z,242.63
2019-02-19T02:50:01.716Z,266.07
2019-02-19T02:52:32.248Z,173.10
2019-02-19T02:55:03.181Z,259.90
2019-02-19T02:57:33.699Z,260.57
2019-02-19T03:00:04.309Z,170.77
2019-02-19T03:02:34.876Z,132.73
2019-02-19T03:05:05.405Z,282.90
2019-02-19T03:07:48.698Z,222.73
2019-02-19T03:10:19.324Z,131.93
2019-02-19T03:12:49.897Z,266.57
2019-02-19T03:15:20.468Z,155.97
2019-02-19T03:17:51.121Z,261.00
2019-02-19T03:20:21.638Z,227.37
2019-02-19T03:22:52.181Z,200.70
2019-02-19T03:25:23.828Z,114.23
2019-02-19T03:27:54.894Z,177.47
2019-02-19T03:30:25.464Z,124.00
2019-02-19T03:32:56.028Z,119.20
2019-02-19T03:35:26.535Z,108.20
2019-02-19T03:37:57.140Z,81.60
2019-02-19T03:40:27.660Z,135.00
2019-02-19T03:42:58.213Z,90.47
2019-02-19T03:45:28.753Z,92.53
2019-02-19T03:47:59.297Z,101.97
2019-02-19T03:50:29.850Z,74.93
2019-02-19T03:53:00.399Z,79.30
2019-02-19T03:55:31.468Z,100.07
2019-02-19T03:58:02.253Z,76.73
2019-02-19T04:00:33.036Z,77.20
2019-02-19T04:03:03.579Z,73.90
2019-02-19T04:05:36.184Z,74.90
2019-02-19T04:08:06.723Z,68.90
2019-02-19T04:10:37.267Z,80.03
2019-02-19T04:13:11.120Z,70.77
2019-02-19T04:15:42.738Z,72.07
2019-02-19T04:18:14.032Z,72.97
2019-02-19T04:20:45.083Z,70.77
2019-02-19T04:23:16.034Z,72.97
2019-02-19T04:25:46.606Z,72.97
2019-02-19T04:28:17.165Z,70.10
2019-02-19T04:30:47.700Z,69.10
2019-02-19T04:33:18.278Z,74.97
2019-02-19T04:35:48.839Z,72.23
2019-02-19T04:38:19.472Z,71.17
2019-02-19T04:40:50.002Z,76.23
2019-02-19T04:43:20.550Z,78.27
2019-02-19T04:45:51.116Z,75.43
2019-02-19T04:48:21.692Z,74.00
2019-02-19T04:50:52.244Z,76.03
2019-02-19T04:53:22.779Z,82.30
2019-02-19T04:55:53.705Z,75.10
2019-02-19T04:58:24.251Z,77.63
2019-02-19T05:00:54.842Z,73.23
2019-02-19T05:03:25.413Z,81.03
2019-02-19T05:05:55.955Z,77.30
2019-02-19T05:08:26.512Z,75.57
2019-02-19T05:10:57.047Z,69.83
2019-02-19T05:13:27.605Z,75.20
2019-02-19T05:15:58.118Z,70.37
2019-02-19T05:18:28.688Z,79.77
2019-02-19T05:20:59.251Z,80.63
2019-02-19T05:23:29.815Z,88.10
2019-02-19T05:26:00.392Z,84.70
2019-02-19T05:28:30.910Z,75.10
2019-02-19T05:31:01.478Z,83.97
2019-02-19T05:33:32.023Z,76.47
2019-02-19T05:36:02.585Z,88.07
2019-02-19T05:38:33.140Z,75.73
2019-02-19T05:41:03.793Z,79.73
2019-02-19T05:43:34.360Z,85.27
2019-02-19T05:46:04.895Z,91.50
2019-02-19T05:48:35.436Z,85.90
2019-02-19T05:51:08.408Z,81.03
2019-02-19T05:53:38.934Z,80.70
2019-02-19T05:56:09.453Z,82.07
2019-02-19T05:58:40.020Z,83.03
2019-02-19T06:01:10.750Z,86.10
2019-02-19T06:03:41.251Z,81.13
2019-02-19T06:06:11.800Z,79.43
2019-02-19T06:08:42.308Z,78.60
2019-02-19T06:11:12.867Z,85.70
2019-02-19T06:13:43.391Z,87.13
2019-02-19T06:16:13.927Z,83.87
2019-02-19T06:18:44.473Z,86.30
2019-02-19T06:21:15.049Z,79.00
2019-02-19T06:23:45.684Z,79.10
2019-02-19T06:26:16.258Z,83.37
2019-02-19T06:28:46.733Z,88.90
2019-02-19T06:31:17.311Z,90.45
2019-02-19T06:33:48.268Z,89.70
2019-02-19T06:36:18.842Z,95.73
2019-02-19T06:38:49.392Z,86.13
2019-02-19T06:41:19.951Z,88.30
2019-02-19T06:43:50.503Z,84.83
2019-02-19T06:46:21.079Z,91.40
2019-02-19T06:48:51.663Z,88.00
2019-02-19T06:51:22.211Z,91.07
2019-02-19T06:53:52.985Z,91.40
2019-02-19T06:56:23.547Z,94.03
2019-02-19T06:58:54.064Z,93.77
2019-02-19T07:01:52.867Z,89.97
2019-02-19T07:04:39.514Z,86.40
2019-02-19T07:07:10.084Z,92.80
2019-02-19T07:09:40.644Z,87.53
2019-02-19T07:12:11.184Z,90.50
2019-02-19T07:14:41.720Z,89.87
2019-02-19T07:17:15.655Z,92.83
2019-02-19T07:19:44.427Z,90.73
2019-02-19T07:22:14.947Z,87.27
2019-02-19T07:24:45.511Z,89.53
2019-02-19T07:27:16.345Z,94.30
2019-02-19T07:29:46.915Z,89.73
2019-02-19T07:32:17.421Z,86.70
2019-02-19T07:34:48.043Z,84.63
2019-02-19T07:37:18.554Z,86.30
2019-02-19T07:39:49.095Z,79.03
2019-02-19T07:42:19.622Z,80.63
2019-02-19T07:44:50.155Z,80.17
2019-02-19T07:47:24.602Z,85.73
2019-02-19T07:49:52.889Z,73.70
2019-02-19T07:52:23.439Z,68.00
2019-02-19T07:54:53.984Z,70.37
2019-02-19T07:57:24.515Z,67.30
2019-02-19T07:59:55.097Z,66.50
2019-02-19T08:02:25.596Z,70.50
2019-02-19T08:04:56.169Z,74.60
2019-02-19T08:07:26.695Z,69.03
2019-02-19T08:09:57.239Z,68.03
2019-02-19T08:12:27.798Z,66.70
2019-02-19T08:14:58.421Z,67.03
2019-02-19T08:17:33.313Z,53.53
2019-02-19T08:20:01.095Z,55.53
2019-02-19T08:22:31.645Z,52.57
2019-02-19T08:25:02.195Z,43.10
2019-02-19T08:27:32.779Z,40.97
2019-02-19T08:30:03.756Z,42.53
2019-02-19T08:32:34.347Z,47.17
2019-02-19T08:35:05.009Z,42.73
2019-02-19T08:37:38.022Z,41.20
2019-02-19T08:40:08.938Z,42.33
2019-02-19T08:42:39.488Z,34.93
2019-02-19T08:45:10.139Z,37.87
2019-02-19T08:47:42.875Z,35.20
2019-02-19T08:50:12.857Z,39.10
2019-02-19T08:52:43.416Z,36.90
2019-02-19T08:55:13.954Z,37.53
2019-02-19T08:57:44.495Z,35.60
2019-02-19T09:00:18.802Z,33.80
2019-02-19T09:02:49.392Z,34.10
2019-02-19T09:05:19.904Z,33.40
2019-02-19T09:07:50.661Z,36.30
2019-02-19T09:10:21.523Z,33.07
2019-02-19T09:12:52.058Z,36.15
2019-02-19T09:15:22.605Z,38.50
2019-02-19T09:17:53.265Z,33.60
2019-02-19T09:20:24.347Z,31.07
2019-02-19T09:22:54.912Z,33.77
2019-02-19T09:25:25.432Z,30.07
2019-02-19T09:27:55.960Z,32.07
2019-02-19T09:30:26.478Z,35.97
2019-02-19T09:32:57.033Z,31.40
2019-02-19T09:35:27.546Z,26.87
2019-02-19T09:37:58.311Z,26.03
2019-02-19T09:40:28.844Z,25.63
2019-02-19T09:42:59.371Z,27.03
2019-02-19T09:45:29.908Z,33.47
2019-02-19T09:48:01.472Z,28.77
2019-02-19T09:50:32.253Z,27.87
2019-02-19T09:53:02.751Z,26.77
2019-02-19T09:55:33.345Z,24.90
2019-02-19T09:58:04.082Z,22.47
2019-02-19T10:00:36.349Z,26.37
2019-02-19T10:03:06.893Z,23.77
2019-02-19T10:05:37.420Z,22.00
2019-02-19T10:08:07.948Z,25.57
2019-02-19T10:10:38.551Z,22.50
2019-02-19T10:13:09.075Z,26.10
2019-02-19T10:15:39.940Z,26.13
2019-02-19T10:18:10.712Z,22.43
2019-02-19T10:20:41.271Z,22.60
2019-02-19T10:23:11.948Z,20.73
2019-02-19T10:25:42.507Z,24.70
2019-02-19T10:28:13.931Z,20.82
2019-02-19T10:30:44.555Z,19.00
2019-02-19T10:33:15.107Z,19.55
2019-02-19T10:35:45.888Z,20.33
2019-02-19T10:38:16.494Z,18.33
2019-02-19T10:40:47.082Z,17.50
2019-02-19T10:43:17.607Z,18.13
2019-02-19T10:45:48.191Z,16.90
2019-02-19T10:48:19.422Z,16.33
2019-02-19T10:50:50.041Z,18.77
2019-02-19T10:53:20.594Z,18.67
2019-02-19T10:55:51.087Z,18.80
2019-02-19T10:58:23.212Z,19.17
2019-02-19T11:00:53.925Z,12.97
2019-02-19T11:03:25.387Z,18.40
2019-02-19T11:05:56.491Z,15.77
2019-02-19T11:08:27.030Z,15.10
2019-02-19T11:10:57.551Z,17.87
2019-02-19T11:13:28.107Z,16.07
2019-02-19T11:15:58.639Z,12.87
2019-02-19T11:18:29.252Z,18.37
2019-02-19T11:20:59.784Z,14.47
2019-02-19T11:23:30.339Z,14.77
2019-02-19T11:26:00.918Z,12.60
2019-02-19T11:28:31.514Z,15.17
2019-02-19T11:31:02.051Z,10.80
2019-02-19T11:33:32.632Z,15.50
2019-02-19T11:36:03.607Z,16.83
2019-02-19T11:38:34.200Z,18.73
2019-02-19T11:41:04.752Z,14.67
2019-02-19T11:43:35.304Z,12.27
2019-02-19T11:46:06.177Z,14.40
2019-02-19T11:48:37.247Z,10.27
2019-02-19T11:51:07.931Z,16.30
2019-02-19T11:53:38.499Z,15.03
2019-02-19T11:56:09.067Z,14.77
2019-02-19T11:58:39.698Z,15.87
2019-02-19T12:01:10.281Z,13.23
2019-02-19T12:03:40.863Z,11.63
2019-02-19T12:06:11.421Z,15.10
2019-02-19T12:08:41.933Z,16.23
2019-02-19T12:11:14.234Z,12.00
2019-02-19T12:13:44.784Z,23.20
2019-02-19T12:16:15.360Z,15.93
2019-02-19T12:18:46.517Z,17.37
2019-02-19T12:21:17.204Z,15.27
2019-02-19T12:23:47.786Z,14.40
2019-02-19T12:26:18.557Z,13.00
2019-02-19T12:28:49.159Z,12.43
2019-02-19T12:31:19.897Z,12.70
2019-02-19T12:33:50.754Z,11.13
2019-02-19T12:36:21.310Z,12.70
2019-02-19T12:38:51.867Z,10.60
2019-02-19T12:41:22.466Z,12.43
2019-02-19T12:43:53.033Z,14.63
2019-02-19T12:46:23.551Z,15.30
2019-02-19T12:48:54.880Z,12.07
2019-02-19T12:51:26.730Z,12.40
2019-02-19T12:53:57.404Z,10.73
2019-02-19T12:56:28.003Z,12.17
2019-02-19T12:58:58.543Z,12.33
2019-02-19T13:01:29.147Z,7.87
2019-02-19T13:03:59.696Z,10.40
2019-02-19T13:06:32.347Z,24.00
2019-02-19T13:09:04.903Z,11.13
2019-02-19T13:11:36.299Z,8.03
2019-02-19T13:14:07.542Z,9.00
2019-02-19T13:16:38.115Z,9.83
2019-02-19T13:19:08.661Z,7.73
2019-02-19T13:21:39.189Z,9.47
2019-02-19T13:24:09.824Z,12.27
2019-02-19T13:26:40.351Z,8.93
2019-02-19T13:29:10.874Z,10.20
2019-02-19T13:31:41.408Z,12.80
2019-02-19T13:34:11.919Z,10.37
2019-02-19T13:36:42.488Z,9.60
2019-02-19T13:39:13.244Z,10.93
2019-02-19T13:41:43.845Z,9.77
2019-02-19T13:44:14.391Z,9.77
2019-02-19T13:46:44.968Z,14.17
2019-02-19T13:49:15.508Z,9.53
2019-02-19T13:51:46.031Z,11.77
2019-02-19T13:54:27.295Z,9.73
2019-02-19T13:56:57.846Z,17.30
2019-02-19T13:59:28.390Z,14.10
2019-02-19T14:01:59.115Z,11.00
2019-02-19T14:04:29.751Z,9.20
2019-02-19T14:07:00.472Z,11.73
2019-02-19T14:09:31.446Z,13.70
2019-02-19T14:12:02.008Z,9.90
2019-02-19T14:15:06.753Z,12.37
2019-02-19T14:17:37.307Z,16.53
2019-02-19T14:20:39.028Z,11.97
2019-02-19T14:23:28.509Z,15.63
2019-02-19T14:26:27.191Z,9.50
2019-02-19T14:29:14.759Z,14.50
2019-02-19T14:31:56.981Z,9.37
2019-02-19T14:34:49.283Z,13.83
2019-02-19T14:37:39.387Z,9.80
2019-02-19T14:40:27.931Z,9.87
2019-02-19T14:43:15.212Z,12.60
2019-02-19T14:45:58.579Z,8.33
2019-02-19T14:48:46.736Z,9.30
2019-02-19T14:51:42.093Z,8.90
2019-02-19T14:54:43.784Z,4.97
2019-02-19T14:57:42.105Z,5.92
2019-02-19T15:00:44.250Z,6.13
2019-02-19T15:03:49.090Z,8.57
2019-02-19T15:06:44.260Z,5.90
2019-02-19T15:09:36.715Z,6.43
2019-02-19T15:12:17.667Z,7.13
2019-02-19T15:15:05.906Z,7.70
2019-02-19T15:17:54.265Z,8.80
2019-02-19T15:20:43.328Z,8.37
2019-02-19T15:23:38.672Z,4.17
2019-02-19T15:26:37.087Z,8.03
2019-02-19T15:29:15.922Z,5.93
2019-02-19T15:32:06.515Z,7.40
2019-02-19T15:35:02.355Z,7.13
2019-02-19T15:37:45.224Z,7.07
2019-02-19T15:40:27.631Z,13.33
2019-02-19T15:43:16.672Z,10.30
2019-02-19T15:46:05.191Z,4.83
2019-02-19T15:48:54.753Z,9.23
2019-02-19T15:51:47.238Z,5.63
2019-02-19T15:54:39.920Z,7.80
2019-02-19T15:57:32.196Z,6.10
2019-02-19T16:00:20.516Z,5.37
2019-02-19T16:02:56.353Z,6.73
2019-02-19T16:06:01.036Z,6.43
2019-02-19T16:08:40.663Z,5.67
2019-02-19T16:11:19.829Z,5.73
2019-02-19T16:14:05.447Z,5.90
2019-02-19T16:17:07.243Z,5.30
2019-02-19T16:19:57.025Z,6.10
2019-02-19T16:22:46.108Z,8.33
2019-02-19T16:25:35.621Z,8.17
2019-02-19T16:28:31.890Z,4.60
2019-02-19T16:31:18.692Z,6.33
2019-02-19T16:34:04.797Z,5.10
2019-02-19T16:37:09.343Z,5.97
2019-02-19T16:39:57.803Z,5.97
2019-02-19T16:42:47.982Z,6.73
2019-02-19T16:45:43.531Z,3.33
2019-02-19T16:48:45.139Z,11.13
2019-02-19T16:51:43.680Z,9.23
2019-02-19T16:54:30.428Z,10.33
2019-02-19T16:57:29.344Z,6.43
2019-02-19T17:00:14.440Z,6.30
2019-02-19T17:02:55.246Z,12.93
2019-02-19T17:05:53.779Z,15.07
2019-02-19T17:09:00.370Z,16.67
2019-02-19T17:11:48.367Z,5.70
2019-02-19T17:14:37.923Z,11.55
2019-02-19T17:17:26.303Z,9.13
2019-02-19T17:20:31.569Z,8.47
2019-02-19T17:23:29.869Z,14.00
2019-02-19T17:26:17.435Z,10.83
2019-02-19T17:29:09.562Z,9.73
2019-02-19T17:31:45.907Z,9.27
2019-02-19T17:34:25.291Z,15.37
2019-02-19T17:37:20.777Z,11.13
2019-02-19T17:40:10.276Z,12.73
2019-02-19T17:42:59.845Z,11.17
2019-02-19T17:45:52.104Z,11.23
2019-02-19T17:48:41.639Z,8.47
2019-02-19T17:51:25.078Z,11.30
2019-02-19T17:54:13.155Z,12.07
2019-02-19T17:57:02.595Z,10.67
2019-02-19T18:00:00.428Z,11.57
2019-02-19T18:02:59.023Z,13.73
2019-02-19T18:05:55.062Z,19.13
2019-02-19T18:08:41.541Z,16.30
2019-02-19T18:11:46.094Z,11.60
2019-02-19T18:14:38.774Z,12.90
2019-02-19T18:17:27.375Z,11.90
2019-02-19T18:19:57.935Z,11.47
2019-02-19T18:22:28.556Z,8.37
2019-02-19T18:24:59.046Z,12.47
2019-02-19T18:27:29.607Z,8.83
2019-02-19T18:30:00.337Z,9.20
2019-02-19T18:32:30.953Z,8.17
2019-02-19T18:35:01.650Z,9.67
2019-02-19T18:37:32.228Z,9.33
2019-02-19T18:40:02.757Z,13.50
2019-02-19T18:42:33.266Z,11.80
2019-02-19T18:45:03.891Z,17.73
2019-02-19T18:47:34.357Z,13.50
2019-02-19T18:50:05.229Z,9.37
2019-02-19T18:52:35.755Z,10.60
2019-02-19T18:55:06.413Z,11.87
2019-02-19T18:57:36.924Z,8.17
2019-02-19T19:00:08.737Z,17.03
2019-02-19T19:02:39.235Z,8.23
2019-02-19T19:05:09.775Z,14.23
2019-02-19T19:07:40.306Z,11.50
2019-02-19T19:10:10.975Z,9.67
2019-02-19T19:12:41.535Z,6.13
2019-02-19T19:15:12.071Z,10.97
2019-02-19T19:17:42.601Z,8.07
2019-02-19T19:20:13.197Z,12.13
2019-02-19T19:22:43.726Z,10.90
2019-02-19T19:25:14.258Z,13.30
2019-02-19T19:27:45.287Z,7.17
2019-02-19T19:30:16.195Z,9.17
2019-02-19T19:32:46.755Z,9.00
2019-02-19T19:35:17.253Z,8.50
2019-02-19T19:37:47.810Z,9.03
2019-02-19T19:40:18.361Z,9.20
2019-02-19T19:42:48.879Z,8.27
2019-02-19T19:45:19.836Z,10.83
2019-02-19T19:47:50.448Z,14.17
2019-02-19T19:50:22.591Z,10.13
2019-02-19T19:52:53.187Z,14.57
2019-02-19T19:55:23.722Z,14.57
2019-02-19T19:57:54.243Z,9.20
2019-02-19T20:00:27.433Z,4.93
2019-02-19T20:02:57.963Z,9.77
2019-02-19T20:05:28.491Z,8.30
2019-02-19T20:07:59.356Z,7.00
2019-02-19T20:10:29.932Z,10.47
2019-02-19T20:13:00.466Z,7.87
2019-02-19T20:15:30.991Z,8.10
2019-02-19T20:18:01.518Z,11.13
2019-02-19T20:20:32.080Z,10.63
2019-02-19T20:23:02.592Z,12.23
2019-02-19T20:25:33.173Z,6.60
2019-02-19T20:28:03.681Z,13.23
2019-02-19T20:30:34.591Z,12.67
2019-02-19T20:33:05.160Z,12.73
2019-02-19T20:35:37.739Z,11.70
2019-02-19T20:38:08.253Z,6.43
2019-02-19T20:40:38.831Z,14.93
2019-02-19T20:43:09.415Z,12.33
2019-02-19T20:45:40.272Z,12.67
2019-02-19T20:48:10.807Z,10.23
2019-02-19T20:50:41.343Z,10.47
2019-02-19T20:53:11.847Z,6.57
2019-02-19T20:55:42.438Z,11.50
2019-02-19T20:58:13.067Z,12.70
2019-02-19T21:00:43.571Z,8.30
2019-02-19T21:03:14.118Z,7.57
2019-02-19T21:05:44.699Z,14.63
2019-02-19T21:08:15.205Z,11.77
2019-02-19T21:10:45.756Z,13.43
2019-02-19T21:13:16.273Z,11.00
2019-02-19T21:15:46.776Z,12.37
2019-02-19T21:18:17.316Z,10.20
2019-02-19T21:20:47.843Z,5.37
2019-02-19T21:23:18.372Z,13.70
2019-02-19T21:25:48.932Z,12.17
2019-02-19T21:28:19.829Z,12.43
2019-02-19T21:30:50.357Z,11.07
2019-02-19T21:33:20.917Z,9.80
2019-02-19T21:35:52.847Z,13.57
2019-02-19T21:38:27.870Z,11.10
2019-02-19T21:40:58.471Z,13.57
2019-02-19T21:43:28.991Z,12.47
2019-02-19T21:45:59.655Z,17.80
2019-02-19T21:48:30.244Z,13.37
2019-02-19T21:51:00.770Z,10.03
2019-02-19T21:53:31.367Z,15.17
2019-02-19T21:56:01.916Z,8.57
2019-02-19T21:58:32.603Z,7.43
2019-02-19T22:01:03.169Z,14.53
2019-02-19T22:03:33.713Z,10.20
2019-02-19T22:06:04.244Z,16.53
2019-02-19T22:08:34.825Z,13.27
2019-02-19T22:11:05.375Z,12.43
2019-02-19T22:13:35.908Z,14.07
2019-02-19T22:16:06.467Z,15.37
2019-02-19T22:18:36.977Z,9.40
2019-02-19T22:21:26.258Z,15.73
2019-02-19T22:23:56.793Z,16.97
2019-02-19T22:26:27.320Z,12.30
2019-02-19T22:28:57.863Z,10.03
2019-02-19T22:31:28.374Z,10.20
2019-02-19T22:33:58.912Z,10.47
2019-02-19T22:36:29.491Z,16.63
2019-02-19T22:38:59.992Z,18.53
2019-02-19T22:41:30.510Z,14.77
2019-02-19T22:44:01.062Z,12.10
2019-02-19T22:46:31.699Z,11.33
2019-02-19T22:49:02.254Z,18.13
2019-02-19T22:51:32.797Z,19.70
2019-02-19T22:54:08.115Z,14.03
2019-02-19T22:56:41.194Z,15.70
2019-02-19T22:59:11.758Z,16.23
2019-02-19T23:01:49.939Z,14.17
2019-02-19T23:04:20.498Z,17.37
2019-02-19T23:06:51.042Z,10.50
2019-02-19T23:09:21.560Z,11.40
2019-02-19T23:11:52.123Z,10.60
2019-02-19T23:14:22.702Z,9.77
2019-02-19T23:16:53.211Z,11.50
2019-02-19T23:19:23.751Z,11.50
2019-02-19T23:21:54.451Z,16.10
2019-02-19T23:24:24.969Z,15.33
2019-02-19T23:26:55.524Z,16.40
2019-02-19T23:29:26.043Z,16.27
2019-02-19T23:31:56.589Z,16.60
2019-02-19T23:34:27.106Z,15.37
2019-02-19T23:37:01.500Z,9.03
2019-02-19T23:39:32.114Z,11.37
2019-02-19T23:42:02.667Z,9.83
2019-02-19T23:44:33.219Z,13.87
2019-02-19T23:47:03.732Z,12.80
2019-02-19T23:49:34.211Z,8.67
2019-02-19T23:52:04.763Z,10.33
2019-02-19T23:54:35.299Z,7.53
2019-02-19T23:57:05.893Z,12.97
2019-02-19T23:59:36.473Z,8.83
